Terminal Aerodrome Forecast
Issued by NWS Flagstaff, AZ

Home | Current Version | Previous Version | Text Only | Print | Product List | Glossary On
Versions: 1 2 3 4 5 6 7 8 9 10 11 12 13
373
FTUS45 KFGZ 221239 AAA
TAFFLG
TAF AMD
KFLG 221239Z 2213/2312 20008KT P6SM SCT020 SCT120
     FM221600 21017G25KT P6SM SCT025 BKN040
      TEMPO 2221/2301 5SM SHRA BKN025 OVC040
     FM230100 VRB05KT P6SM BKN025 BKN040 PROB30 2301/2305 6SM -SHRA
      BR=

USA.gov is the U.S. government's official web portal to all federal, state and local government web resources and services.